sensor_id;sensor_type;location;lat;lon;timestamp;P1;durP1;ratioP1;P2;durP2;ratioP2
13032;SDS011;6583;42.632;23.298;2022-10-16T00:01:49;5.23;;;4.47;;
13032;SDS011;6583;42.632;23.298;2022-10-16T00:04:16;4.90;;;4.40;;
13032;SDS011;6583;42.632;23.298;2022-10-16T00:06:42;4.73;;;4.33;;
13032;SDS011;6583;42.632;23.298;2022-10-16T00:09:09;4.60;;;4.20;;
13032;SDS011;6583;42.632;23.298;2022-10-16T00:11:37;5.20;;;4.70;;
13032;SDS011;6583;42.632;23.298;2022-10-16T00:14:05;5.20;;;4.50;;
13032;SDS011;6583;42.632;23.298;2022-10-16T00:16:35;4.40;;;4.00;;
13032;SDS011;6583;42.632;23.298;2022-10-16T00:19:02;4.53;;;4.13;;
13032;SDS011;6583;42.632;23.298;2022-10-16T00:21:29;4.47;;;4.00;;
13032;SDS011;6583;42.632;23.298;2022-10-16T00:23:57;7.33;;;4.40;;
13032;SDS011;6583;42.632;23.298;2022-10-16T00:26:26;6.07;;;4.40;;
13032;SDS011;6583;42.632;23.298;2022-10-16T00:28:54;5.27;;;4.57;;
13032;SDS011;6583;42.632;23.298;2022-10-16T00:31:21;5.40;;;4.37;;
13032;SDS011;6583;42.632;23.298;2022-10-16T00:33:50;5.43;;;4.30;;
13032;SDS011;6583;42.632;23.298;2022-10-16T00:36:18;6.17;;;5.23;;
13032;SDS011;6583;42.632;23.298;2022-10-16T00:38:46;5.13;;;4.63;;
13032;SDS011;6583;42.632;23.298;2022-10-16T00:41:17;7.17;;;5.30;;
13032;SDS011;6583;42.632;23.298;2022-10-16T00:43:45;4.90;;;4.37;;
13032;SDS011;6583;42.632;23.298;2022-10-16T00:46:14;5.13;;;4.40;;
13032;SDS011;6583;42.632;23.298;2022-10-16T00:48:45;5.20;;;4.57;;
13032;SDS011;6583;42.632;23.298;2022-10-16T00:51:18;4.30;;;3.90;;
13032;SDS011;6583;42.632;23.298;2022-10-16T00:53:48;5.43;;;4.10;;
13032;SDS011;6583;42.632;23.298;2022-10-16T00:56:15;5.53;;;4.33;;
13032;SDS011;6583;42.632;23.298;2022-10-16T00:58:42;4.67;;;4.27;;
13032;SDS011;6583;42.632;23.298;2022-10-16T01:01:09;5.13;;;4.43;;
13032;SDS011;6583;42.632;23.298;2022-10-16T01:03:36;4.43;;;4.00;;
13032;SDS011;6583;42.632;23.298;2022-10-16T01:06:11;5.40;;;4.33;;
13032;SDS011;6583;42.632;23.298;2022-10-16T01:11:41;6.47;;;4.07;;
13032;SDS011;6583;42.632;23.298;2022-10-16T01:14:14;5.27;;;4.20;;
13032;SDS011;6583;42.632;23.298;2022-10-16T01:16:48;4.57;;;4.10;;
13032;SDS011;6583;42.632;23.298;2022-10-16T01:19:25;4.67;;;4.13;;
13032;SDS011;6583;42.632;23.298;2022-10-16T01:22:08;5.60;;;4.13;;
13032;SDS011;6583;42.632;23.298;2022-10-16T01:24:38;5.47;;;4.40;;
13032;SDS011;6583;42.632;23.298;2022-10-16T01:27:09;5.43;;;4.27;;
13032;SDS011;6583;42.632;23.298;2022-10-16T01:29:39;4.50;;;4.17;;
13032;SDS011;6583;42.632;23.298;2022-10-16T01:32:13;5.43;;;4.10;;
13032;SDS011;6583;42.632;23.298;2022-10-16T01:34:45;4.53;;;4.10;;
13032;SDS011;6583;42.632;23.298;2022-10-16T01:37:18;5.30;;;4.63;;
13032;SDS011;6583;42.632;23.298;2022-10-16T01:39:51;4.97;;;4.47;;
13032;SDS011;6583;42.632;23.298;2022-10-16T01:42:26;4.60;;;4.10;;
13032;SDS011;6583;42.632;23.298;2022-10-16T01:44:57;4.70;;;4.10;;
13032;SDS011;6583;42.632;23.298;2022-10-16T01:47:26;4.97;;;4.17;;
13032;SDS011;6583;42.632;23.298;2022-10-16T01:49:53;5.00;;;4.50;;
13032;SDS011;6583;42.632;23.298;2022-10-16T01:52:24;5.70;;;4.67;;
13032;SDS011;6583;42.632;23.298;2022-10-16T01:54:53;5.50;;;4.97;;
13032;SDS011;6583;42.632;23.298;2022-10-16T01:57:22;4.80;;;4.37;;
13032;SDS011;6583;42.632;23.298;2022-10-16T01:59:54;7.03;;;5.13;;
13032;SDS011;6583;42.632;23.298;2022-10-16T02:02:24;5.00;;;4.50;;
13032;SDS011;6583;42.632;23.298;2022-10-16T02:04:55;5.07;;;4.57;;
13032;SDS011;6583;42.632;23.298;2022-10-16T02:07:29;5.03;;;4.40;;
13032;SDS011;6583;42.632;23.298;2022-10-16T02:09:56;5.30;;;4.10;;
13032;SDS011;6583;42.632;23.298;2022-10-16T02:12:24;4.90;;;4.40;;
13032;SDS011;6583;42.632;23.298;2022-10-16T02:14:55;5.73;;;4.83;;
13032;SDS011;6583;42.632;23.298;2022-10-16T02:17:21;7.07;;;4.73;;
13032;SDS011;6583;42.632;23.298;2022-10-16T02:19:49;5.10;;;4.60;;
13032;SDS011;6583;42.632;23.298;2022-10-16T02:22:19;5.47;;;4.57;;
13032;SDS011;6583;42.632;23.298;2022-10-16T02:24:54;5.07;;;4.57;;
13032;SDS011;6583;42.632;23.298;2022-10-16T02:27:25;4.63;;;4.23;;
13032;SDS011;6583;42.632;23.298;2022-10-16T02:30:00;5.40;;;4.90;;
13032;SDS011;6583;42.632;23.298;2022-10-16T02:32:33;5.00;;;4.50;;
13032;SDS011;6583;42.632;23.298;2022-10-16T02:35:03;7.40;;;5.40;;
13032;SDS011;6583;42.632;23.298;2022-10-16T02:37:31;5.83;;;5.33;;
13032;SDS011;6583;42.632;23.298;2022-10-16T02:39:58;11.07;;;9.03;;
13032;SDS011;6583;42.632;23.298;2022-10-16T02:42:31;7.10;;;6.17;;
13032;SDS011;6583;42.632;23.298;2022-10-16T02:45:00;6.80;;;6.13;;
13032;SDS011;6583;42.632;23.298;2022-10-16T02:47:27;7.73;;;6.20;;
13032;SDS011;6583;42.632;23.298;2022-10-16T02:49:53;7.57;;;6.80;;
13032;SDS011;6583;42.632;23.298;2022-10-16T02:52:20;7.33;;;6.23;;
13032;SDS011;6583;42.632;23.298;2022-10-16T02:54:47;9.67;;;7.70;;
13032;SDS011;6583;42.632;23.298;2022-10-16T02:57:13;7.70;;;7.00;;
13032;SDS011;6583;42.632;23.298;2022-10-16T02:59:42;8.40;;;7.50;;
13032;SDS011;6583;42.632;23.298;2022-10-16T03:02:08;8.67;;;7.43;;
13032;SDS011;6583;42.632;23.298;2022-10-16T03:04:35;8.37;;;6.87;;
13032;SDS011;6583;42.632;23.298;2022-10-16T03:07:02;10.43;;;8.40;;
13032;SDS011;6583;42.632;23.298;2022-10-16T03:09:29;8.90;;;8.00;;
13032;SDS011;6583;42.632;23.298;2022-10-16T03:11:56;9.00;;;7.47;;
13032;SDS011;6583;42.632;23.298;2022-10-16T03:14:22;8.60;;;7.70;;
13032;SDS011;6583;42.632;23.298;2022-10-16T03:16:50;8.80;;;7.63;;
13032;SDS011;6583;42.632;23.298;2022-10-16T03:19:17;7.90;;;7.10;;
13032;SDS011;6583;42.632;23.298;2022-10-16T03:21:44;8.50;;;7.60;;
13032;SDS011;6583;42.632;23.298;2022-10-16T03:24:11;9.63;;;7.63;;
13032;SDS011;6583;42.632;23.298;2022-10-16T03:26:38;8.20;;;7.33;;
13032;SDS011;6583;42.632;23.298;2022-10-16T03:29:04;8.90;;;8.00;;
13032;SDS011;6583;42.632;23.298;2022-10-16T03:31:31;9.07;;;7.60;;
13032;SDS011;6583;42.632;23.298;2022-10-16T03:34:00;10.40;;;7.70;;
13032;SDS011;6583;42.632;23.298;2022-10-16T03:36:26;8.53;;;7.30;;
13032;SDS011;6583;42.632;23.298;2022-10-16T03:38:53;9.13;;;7.80;;
13032;SDS011;6583;42.632;23.298;2022-10-16T03:41:20;9.07;;;7.23;;
13032;SDS011;6583;42.632;23.298;2022-10-16T03:43:46;9.47;;;7.90;;
13032;SDS011;6583;42.632;23.298;2022-10-16T03:46:13;8.70;;;7.80;;
13032;SDS011;6583;42.632;23.298;2022-10-16T03:48:40;8.70;;;6.60;;
13032;SDS011;6583;42.632;23.298;2022-10-16T03:51:08;8.93;;;7.83;;
13032;SDS011;6583;42.632;23.298;2022-10-16T03:53:34;11.33;;;8.57;;
13032;SDS011;6583;42.632;23.298;2022-10-16T03:56:01;12.17;;;9.70;;
13032;SDS011;6583;42.632;23.298;2022-10-16T03:58:28;9.97;;;8.97;;
13032;SDS011;6583;42.632;23.298;2022-10-16T04:00:55;11.50;;;9.20;;
13032;SDS011;6583;42.632;23.298;2022-10-16T04:03:21;12.80;;;8.63;;
13032;SDS011;6583;42.632;23.298;2022-10-16T04:05:48;10.00;;;8.93;;
13032;SDS011;6583;42.632;23.298;2022-10-16T04:08:16;11.70;;;9.53;;
13032;SDS011;6583;42.632;23.298;2022-10-16T04:10:43;12.70;;;10.63;;
13032;SDS011;6583;42.632;23.298;2022-10-16T04:13:10;10.63;;;9.53;;
13032;SDS011;6583;42.632;23.298;2022-10-16T04:15:37;14.53;;;10.53;;
13032;SDS011;6583;42.632;23.298;2022-10-16T04:18:04;12.57;;;10.27;;
13032;SDS011;6583;42.632;23.298;2022-10-16T04:20:31;13.20;;;10.47;;
13032;SDS011;6583;42.632;23.298;2022-10-16T04:22:59;12.37;;;10.53;;
13032;SDS011;6583;42.632;23.298;2022-10-16T04:25:27;12.13;;;10.27;;
13032;SDS011;6583;42.632;23.298;2022-10-16T04:27:54;10.60;;;9.30;;
13032;SDS011;6583;42.632;23.298;2022-10-16T04:30:21;10.63;;;9.53;;
13032;SDS011;6583;42.632;23.298;2022-10-16T04:32:49;18.57;;;9.33;;
13032;SDS011;6583;42.632;23.298;2022-10-16T04:35:16;22.77;;;9.27;;
13032;SDS011;6583;42.632;23.298;2022-10-16T04:37:42;12.23;;;8.57;;
13032;SDS011;6583;42.632;23.298;2022-10-16T04:40:09;12.70;;;9.17;;
13032;SDS011;6583;42.632;23.298;2022-10-16T04:42:38;32.37;;;8.47;;
13032;SDS011;6583;42.632;23.298;2022-10-16T04:45:05;17.80;;;8.50;;
13032;SDS011;6583;42.632;23.298;2022-10-16T04:47:32;20.97;;;8.27;;
13032;SDS011;6583;42.632;23.298;2022-10-16T04:49:59;12.50;;;8.07;;
13032;SDS011;6583;42.632;23.298;2022-10-16T04:52:26;18.43;;;8.30;;
13032;SDS011;6583;42.632;23.298;2022-10-16T04:54:52;13.83;;;8.13;;
13032;SDS011;6583;42.632;23.298;2022-10-16T04:57:20;9.97;;;7.90;;
13032;SDS011;6583;42.632;23.298;2022-10-16T04:59:48;9.33;;;7.37;;
13032;SDS011;6583;42.632;23.298;2022-10-16T05:02:16;10.43;;;7.40;;
13032;SDS011;6583;42.632;23.298;2022-10-16T05:04:42;11.87;;;7.93;;
13032;SDS011;6583;42.632;23.298;2022-10-16T05:07:09;12.27;;;7.90;;
13032;SDS011;6583;42.632;23.298;2022-10-16T05:09:35;10.87;;;8.13;;
13032;SDS011;6583;42.632;23.298;2022-10-16T05:12:02;14.27;;;7.53;;
13032;SDS011;6583;42.632;23.298;2022-10-16T05:14:29;17.07;;;8.73;;
13032;SDS011;6583;42.632;23.298;2022-10-16T05:16:57;14.97;;;8.17;;
13032;SDS011;6583;42.632;23.298;2022-10-16T05:19:25;13.33;;;8.27;;
13032;SDS011;6583;42.632;23.298;2022-10-16T05:21:52;15.57;;;7.97;;
13032;SDS011;6583;42.632;23.298;2022-10-16T05:24:19;13.77;;;8.20;;
13032;SDS011;6583;42.632;23.298;2022-10-16T05:26:45;7.77;;;6.87;;
13032;SDS011;6583;42.632;23.298;2022-10-16T05:29:12;14.83;;;7.83;;
13032;SDS011;6583;42.632;23.298;2022-10-16T05:31:39;12.00;;;8.43;;
13032;SDS011;6583;42.632;23.298;2022-10-16T05:34:07;11.43;;;7.40;;
13032;SDS011;6583;42.632;23.298;2022-10-16T05:36:33;8.00;;;7.13;;
13032;SDS011;6583;42.632;23.298;2022-10-16T05:39:00;16.03;;;7.83;;
13032;SDS011;6583;42.632;23.298;2022-10-16T05:41:27;10.10;;;7.43;;
13032;SDS011;6583;42.632;23.298;2022-10-16T05:43:53;11.37;;;7.23;;
13032;SDS011;6583;42.632;23.298;2022-10-16T05:46:20;10.73;;;8.90;;
13032;SDS011;6583;42.632;23.298;2022-10-16T05:48:47;16.53;;;11.53;;
13032;SDS011;6583;42.632;23.298;2022-10-16T05:51:15;17.10;;;10.77;;
13032;SDS011;6583;42.632;23.298;2022-10-16T05:53:42;15.20;;;12.60;;
13032;SDS011;6583;42.632;23.298;2022-10-16T05:56:09;12.50;;;10.30;;
13032;SDS011;6583;42.632;23.298;2022-10-16T05:58:37;9.87;;;7.70;;
13032;SDS011;6583;42.632;23.298;2022-10-16T06:01:06;14.13;;;10.80;;
13032;SDS011;6583;42.632;23.298;2022-10-16T06:03:34;13.60;;;9.80;;
13032;SDS011;6583;42.632;23.298;2022-10-16T06:06:06;14.47;;;11.73;;
13032;SDS011;6583;42.632;23.298;2022-10-16T06:08:35;18.17;;;12.57;;
13032;SDS011;6583;42.632;23.298;2022-10-16T06:11:02;20.13;;;14.13;;
13032;SDS011;6583;42.632;23.298;2022-10-16T06:13:29;24.43;;;15.30;;
13032;SDS011;6583;42.632;23.298;2022-10-16T06:15:56;18.70;;;14.00;;
13032;SDS011;6583;42.632;23.298;2022-10-16T06:18:24;15.83;;;11.27;;
13032;SDS011;6583;42.632;23.298;2022-10-16T06:20:51;17.27;;;14.20;;
13032;SDS011;6583;42.632;23.298;2022-10-16T06:23:17;14.60;;;12.53;;
13032;SDS011;6583;42.632;23.298;2022-10-16T06:25:45;19.77;;;14.97;;
13032;SDS011;6583;42.632;23.298;2022-10-16T06:28:13;18.93;;;13.80;;
13032;SDS011;6583;42.632;23.298;2022-10-16T06:30:40;16.13;;;13.50;;
13032;SDS011;6583;42.632;23.298;2022-10-16T06:33:08;14.80;;;13.13;;
13032;SDS011;6583;42.632;23.298;2022-10-16T06:35:35;16.13;;;12.47;;
13032;SDS011;6583;42.632;23.298;2022-10-16T06:38:02;17.03;;;12.27;;
13032;SDS011;6583;42.632;23.298;2022-10-16T06:40:28;18.97;;;12.40;;
13032;SDS011;6583;42.632;23.298;2022-10-16T06:42:56;14.13;;;12.43;;
13032;SDS011;6583;42.632;23.298;2022-10-16T06:45:23;19.20;;;13.53;;
13032;SDS011;6583;42.632;23.298;2022-10-16T06:47:50;17.67;;;13.57;;
13032;SDS011;6583;42.632;23.298;2022-10-16T06:50:16;14.87;;;12.80;;
13032;SDS011;6583;42.632;23.298;2022-10-16T06:52:43;15.60;;;12.13;;
13032;SDS011;6583;42.632;23.298;2022-10-16T06:55:10;16.77;;;14.17;;
13032;SDS011;6583;42.632;23.298;2022-10-16T06:57:36;17.70;;;13.20;;
13032;SDS011;6583;42.632;23.298;2022-10-16T07:00:05;19.23;;;14.13;;
13032;SDS011;6583;42.632;23.298;2022-10-16T07:02:32;17.03;;;13.63;;
13032;SDS011;6583;42.632;23.298;2022-10-16T07:04:59;18.40;;;13.93;;
13032;SDS011;6583;42.632;23.298;2022-10-16T07:07:26;20.33;;;14.07;;
13032;SDS011;6583;42.632;23.298;2022-10-16T07:09:52;19.63;;;14.00;;
13032;SDS011;6583;42.632;23.298;2022-10-16T07:12:19;16.53;;;13.47;;
13032;SDS011;6583;42.632;23.298;2022-10-16T07:14:46;17.13;;;13.27;;
13032;SDS011;6583;42.632;23.298;2022-10-16T07:17:14;14.53;;;12.30;;
13032;SDS011;6583;42.632;23.298;2022-10-16T07:19:41;14.03;;;12.07;;
13032;SDS011;6583;42.632;23.298;2022-10-16T07:22:07;12.53;;;10.63;;
13032;SDS011;6583;42.632;23.298;2022-10-16T07:24:34;12.57;;;11.10;;
13032;SDS011;6583;42.632;23.298;2022-10-16T07:27:01;11.50;;;10.30;;
13032;SDS011;6583;42.632;23.298;2022-10-16T07:29:27;13.37;;;11.07;;
13032;SDS011;6583;42.632;23.298;2022-10-16T07:31:54;11.37;;;10.17;;
13032;SDS011;6583;42.632;23.298;2022-10-16T07:34:22;12.50;;;10.53;;
13032;SDS011;6583;42.632;23.298;2022-10-16T07:36:49;13.73;;;9.97;;
13032;SDS011;6583;42.632;23.298;2022-10-16T07:39:16;12.37;;;9.93;;
13032;SDS011;6583;42.632;23.298;2022-10-16T07:41:43;10.87;;;9.77;;
13032;SDS011;6583;42.632;23.298;2022-10-16T07:44:10;13.53;;;10.07;;
13032;SDS011;6583;42.632;23.298;2022-10-16T07:46:36;11.10;;;9.90;;
13032;SDS011;6583;42.632;23.298;2022-10-16T07:49:03;13.40;;;11.37;;
13032;SDS011;6583;42.632;23.298;2022-10-16T07:51:31;11.07;;;9.30;;
13032;SDS011;6583;42.632;23.298;2022-10-16T07:53:58;9.53;;;8.53;;
13032;SDS011;6583;42.632;23.298;2022-10-16T07:56:25;12.20;;;8.97;;
13032;SDS011;6583;42.632;23.298;2022-10-16T07:58:51;11.60;;;9.00;;
13032;SDS011;6583;42.632;23.298;2022-10-16T08:01:18;12.63;;;9.03;;
13032;SDS011;6583;42.632;23.298;2022-10-16T08:03:46;12.67;;;9.50;;
13032;SDS011;6583;42.632;23.298;2022-10-16T08:06:14;13.53;;;9.40;;
13032;SDS011;6583;42.632;23.298;2022-10-16T08:08:42;13.93;;;10.03;;
13032;SDS011;6583;42.632;23.298;2022-10-16T08:11:09;18.07;;;10.03;;
13032;SDS011;6583;42.632;23.298;2022-10-16T08:13:36;10.67;;;9.63;;
13032;SDS011;6583;42.632;23.298;2022-10-16T08:16:03;11.50;;;10.20;;
13032;SDS011;6583;42.632;23.298;2022-10-16T08:18:33;15.27;;;10.53;;
13032;SDS011;6583;42.632;23.298;2022-10-16T08:21:00;13.40;;;11.60;;
13032;SDS011;6583;42.632;23.298;2022-10-16T08:23:26;13.40;;;10.20;;
13032;SDS011;6583;42.632;23.298;2022-10-16T08:25:55;12.00;;;10.33;;
13032;SDS011;6583;42.632;23.298;2022-10-16T08:28:28;19.03;;;11.93;;
13032;SDS011;6583;42.632;23.298;2022-10-16T08:30:55;14.97;;;12.27;;
13032;SDS011;6583;42.632;23.298;2022-10-16T08:33:22;15.27;;;12.10;;
13032;SDS011;6583;42.632;23.298;2022-10-16T08:35:51;14.97;;;11.77;;
13032;SDS011;6583;42.632;23.298;2022-10-16T08:38:19;12.83;;;9.30;;
13032;SDS011;6583;42.632;23.298;2022-10-16T08:40:46;10.13;;;8.93;;
13032;SDS011;6583;42.632;23.298;2022-10-16T08:46:17;9.97;;;8.10;;
13032;SDS011;6583;42.632;23.298;2022-10-16T08:48:52;13.23;;;9.40;;
13032;SDS011;6583;42.632;23.298;2022-10-16T08:51:21;9.83;;;8.07;;
13032;SDS011;6583;42.632;23.298;2022-10-16T08:53:51;10.73;;;7.70;;
13032;SDS011;6583;42.632;23.298;2022-10-16T08:56:21;5.70;;;5.13;;
13032;SDS011;6583;42.632;23.298;2022-10-16T08:58:49;6.73;;;5.20;;
13032;SDS011;6583;42.632;23.298;2022-10-16T09:01:18;7.03;;;5.53;;
13032;SDS011;6583;42.632;23.298;2022-10-16T09:03:58;4.37;;;3.90;;
13032;SDS011;6583;42.632;23.298;2022-10-16T09:06:43;4.87;;;4.47;;
13032;SDS011;6583;42.632;23.298;2022-10-16T09:09:21;5.00;;;4.47;;
13032;SDS011;6583;42.632;23.298;2022-10-16T09:12:07;6.80;;;5.47;;
13032;SDS011;6583;42.632;23.298;2022-10-16T09:14:43;8.17;;;5.07;;
13032;SDS011;6583;42.632;23.298;2022-10-16T09:17:30;6.37;;;5.20;;
13032;SDS011;6583;42.632;23.298;2022-10-16T09:20:12;7.77;;;5.57;;
13032;SDS011;6583;42.632;23.298;2022-10-16T09:22:45;6.63;;;5.17;;
13032;SDS011;6583;42.632;23.298;2022-10-16T09:25:13;4.67;;;4.17;;
13032;SDS011;6583;42.632;23.298;2022-10-16T09:27:41;6.13;;;4.50;;
13032;SDS011;6583;42.632;23.298;2022-10-16T09:30:13;4.83;;;4.43;;
13032;SDS011;6583;42.632;23.298;2022-10-16T09:32:42;5.00;;;4.40;;
13032;SDS011;6583;42.632;23.298;2022-10-16T09:35:14;5.37;;;4.87;;
13032;SDS011;6583;42.632;23.298;2022-10-16T09:37:44;5.37;;;4.87;;
13032;SDS011;6583;42.632;23.298;2022-10-16T09:40:13;5.60;;;4.23;;
13032;SDS011;6583;42.632;23.298;2022-10-16T09:42:52;5.87;;;4.43;;
13032;SDS011;6583;42.632;23.298;2022-10-16T09:45:25;5.03;;;4.40;;
13032;SDS011;6583;42.632;23.298;2022-10-16T09:47:51;6.40;;;4.20;;
13032;SDS011;6583;42.632;23.298;2022-10-16T09:50:22;4.40;;;3.90;;
13032;SDS011;6583;42.632;23.298;2022-10-16T09:53:01;5.30;;;4.03;;
13032;SDS011;6583;42.632;23.298;2022-10-16T09:55:29;5.27;;;4.40;;
13032;SDS011;6583;42.632;23.298;2022-10-16T09:57:56;5.10;;;4.10;;
13032;SDS011;6583;42.632;23.298;2022-10-16T10:00:23;5.37;;;4.20;;
13032;SDS011;6583;42.632;23.298;2022-10-16T10:02:52;6.07;;;4.40;;
13032;SDS011;6583;42.632;23.298;2022-10-16T10:05:21;4.67;;;4.17;;
13032;SDS011;6583;42.632;23.298;2022-10-16T10:07:53;4.87;;;4.37;;
13032;SDS011;6583;42.632;23.298;2022-10-16T10:10:23;5.87;;;4.40;;
13032;SDS011;6583;42.632;23.298;2022-10-16T10:12:51;7.23;;;4.60;;
13032;SDS011;6583;42.632;23.298;2022-10-16T10:15:19;5.27;;;4.00;;
13032;SDS011;6583;42.632;23.298;2022-10-16T10:17:49;4.30;;;3.90;;
13032;SDS011;6583;42.632;23.298;2022-10-16T10:20:25;5.33;;;4.20;;
13032;SDS011;6583;42.632;23.298;2022-10-16T10:22:54;4.80;;;4.30;;
13032;SDS011;6583;42.632;23.298;2022-10-16T10:28:20;6.27;;;4.50;;
13032;SDS011;6583;42.632;23.298;2022-10-16T10:31:00;4.80;;;4.30;;
13032;SDS011;6583;42.632;23.298;2022-10-16T10:33:37;6.13;;;4.60;;
13032;SDS011;6583;42.632;23.298;2022-10-16T10:36:13;4.80;;;4.20;;
13032;SDS011;6583;42.632;23.298;2022-10-16T10:38:50;4.70;;;4.00;;
13032;SDS011;6583;42.632;23.298;2022-10-16T10:41:24;6.00;;;3.87;;
13032;SDS011;6583;42.632;23.298;2022-10-16T10:44:03;4.07;;;3.63;;
13032;SDS011;6583;42.632;23.298;2022-10-16T10:46:39;4.97;;;3.93;;
13032;SDS011;6583;42.632;23.298;2022-10-16T10:52:09;4.53;;;3.97;;
13032;SDS011;6583;42.632;23.298;2022-10-16T10:54:50;4.10;;;3.70;;
13032;SDS011;6583;42.632;23.298;2022-10-16T10:57:22;4.73;;;4.23;;
13032;SDS011;6583;42.632;23.298;2022-10-16T11:00:01;5.20;;;4.13;;
13032;SDS011;6583;42.632;23.298;2022-10-16T11:02:35;4.50;;;3.90;;
13032;SDS011;6583;42.632;23.298;2022-10-16T11:08:09;4.47;;;4.00;;
13032;SDS011;6583;42.632;23.298;2022-10-16T11:10:42;4.10;;;3.70;;
13032;SDS011;6583;42.632;23.298;2022-10-16T11:13:19;4.27;;;3.80;;
13032;SDS011;6583;42.632;23.298;2022-10-16T11:15:51;4.67;;;3.87;;
13032;SDS011;6583;42.632;23.298;2022-10-16T11:18:24;5.90;;;4.10;;
13032;SDS011;6583;42.632;23.298;2022-10-16T11:20:59;5.30;;;4.57;;
13032;SDS011;6583;42.632;23.298;2022-10-16T11:23:31;6.07;;;4.20;;
13032;SDS011;6583;42.632;23.298;2022-10-16T11:26:05;4.97;;;4.47;;
13032;SDS011;6583;42.632;23.298;2022-10-16T11:28:42;4.13;;;3.60;;
13032;SDS011;6583;42.632;23.298;2022-10-16T11:31:13;6.10;;;3.47;;
13032;SDS011;6583;42.632;23.298;2022-10-16T11:33:46;5.23;;;3.40;;
13032;SDS011;6583;42.632;23.298;2022-10-16T11:36:19;3.67;;;3.37;;
13032;SDS011;6583;42.632;23.298;2022-10-16T11:38:51;4.60;;;3.27;;
13032;SDS011;6583;42.632;23.298;2022-10-16T11:41:23;3.57;;;3.27;;
13032;SDS011;6583;42.632;23.298;2022-10-16T11:46:43;3.40;;;3.10;;
13032;SDS011;6583;42.632;23.298;2022-10-16T11:49:19;4.50;;;3.60;;
13032;SDS011;6583;42.632;23.298;2022-10-16T11:51:51;3.97;;;3.03;;
13032;SDS011;6583;42.632;23.298;2022-10-16T11:54:28;3.53;;;3.00;;
13032;SDS011;6583;42.632;23.298;2022-10-16T11:57:01;3.33;;;2.90;;
13032;SDS011;6583;42.632;23.298;2022-10-16T11:59:41;3.77;;;2.90;;
13032;SDS011;6583;42.632;23.298;2022-10-16T12:02:22;3.97;;;3.13;;
13032;SDS011;6583;42.632;23.298;2022-10-16T12:05:03;3.93;;;3.00;;
13032;SDS011;6583;42.632;23.298;2022-10-16T12:07:41;5.40;;;3.10;;
13032;SDS011;6583;42.632;23.298;2022-10-16T12:10:19;4.50;;;3.20;;
13032;SDS011;6583;42.632;23.298;2022-10-16T12:12:48;3.73;;;2.87;;
13032;SDS011;6583;42.632;23.298;2022-10-16T12:15:18;4.23;;;3.00;;
13032;SDS011;6583;42.632;23.298;2022-10-16T12:17:47;3.33;;;2.70;;
13032;SDS011;6583;42.632;23.298;2022-10-16T12:20:22;3.77;;;2.80;;
13032;SDS011;6583;42.632;23.298;2022-10-16T12:22:57;3.17;;;2.80;;
13032;SDS011;6583;42.632;23.298;2022-10-16T12:25:27;5.77;;;3.10;;
13032;SDS011;6583;42.632;23.298;2022-10-16T12:28:00;3.57;;;2.60;;
13032;SDS011;6583;42.632;23.298;2022-10-16T12:30:29;3.13;;;2.60;;
13032;SDS011;6583;42.632;23.298;2022-10-16T12:32:58;5.20;;;2.90;;
13032;SDS011;6583;42.632;23.298;2022-10-16T12:35:28;3.33;;;2.80;;
13032;SDS011;6583;42.632;23.298;2022-10-16T12:38:06;3.37;;;3.00;;
13032;SDS011;6583;42.632;23.298;2022-10-16T12:40:35;4.17;;;3.10;;
13032;SDS011;6583;42.632;23.298;2022-10-16T12:43:24;4.27;;;2.93;;
13032;SDS011;6583;42.632;23.298;2022-10-16T12:46:02;3.20;;;2.80;;
13032;SDS011;6583;42.632;23.298;2022-10-16T12:48:31;4.27;;;3.13;;
13032;SDS011;6583;42.632;23.298;2022-10-16T12:51:09;3.37;;;2.90;;
13032;SDS011;6583;42.632;23.298;2022-10-16T12:53:38;3.10;;;2.87;;
13032;SDS011;6583;42.632;23.298;2022-10-16T12:56:09;3.87;;;2.73;;
13032;SDS011;6583;42.632;23.298;2022-10-16T12:58:50;3.67;;;2.90;;
13032;SDS011;6583;42.632;23.298;2022-10-16T13:01:29;4.37;;;2.90;;
13032;SDS011;6583;42.632;23.298;2022-10-16T13:07:03;4.13;;;3.20;;
13032;SDS011;6583;42.632;23.298;2022-10-16T13:09:46;3.57;;;3.27;;
13032;SDS011;6583;42.632;23.298;2022-10-16T13:12:28;2.70;;;2.50;;
13032;SDS011;6583;42.632;23.298;2022-10-16T13:15:24;3.97;;;2.70;;
13032;SDS011;6583;42.632;23.298;2022-10-16T13:18:04;2.93;;;2.60;;
13032;SDS011;6583;42.632;23.298;2022-10-16T13:20:46;3.00;;;2.70;;
13032;SDS011;6583;42.632;23.298;2022-10-16T13:23:23;3.27;;;2.70;;
13032;SDS011;6583;42.632;23.298;2022-10-16T13:26:01;3.30;;;2.90;;
13032;SDS011;6583;42.632;23.298;2022-10-16T13:28:35;3.97;;;2.80;;
13032;SDS011;6583;42.632;23.298;2022-10-16T13:31:05;3.80;;;2.97;;
13032;SDS011;6583;42.632;23.298;2022-10-16T13:33:41;4.47;;;2.80;;
13032;SDS011;6583;42.632;23.298;2022-10-16T13:36:18;3.07;;;2.80;;
13032;SDS011;6583;42.632;23.298;2022-10-16T13:38:46;3.57;;;2.67;;
13032;SDS011;6583;42.632;23.298;2022-10-16T13:41:15;4.10;;;2.90;;
13032;SDS011;6583;42.632;23.298;2022-10-16T13:43:44;3.27;;;2.73;;
13032;SDS011;6583;42.632;23.298;2022-10-16T13:46:13;3.40;;;3.10;;
13032;SDS011;6583;42.632;23.298;2022-10-16T13:48:40;4.73;;;2.97;;
13032;SDS011;6583;42.632;23.298;2022-10-16T13:51:11;4.20;;;2.80;;
13032;SDS011;6583;42.632;23.298;2022-10-16T13:53:39;6.47;;;2.93;;
13032;SDS011;6583;42.632;23.298;2022-10-16T13:56:07;4.77;;;2.90;;
13032;SDS011;6583;42.632;23.298;2022-10-16T13:58:38;3.57;;;3.03;;
13032;SDS011;6583;42.632;23.298;2022-10-16T14:01:05;5.23;;;3.30;;
13032;SDS011;6583;42.632;23.298;2022-10-16T14:03:43;5.93;;;3.20;;
13032;SDS011;6583;42.632;23.298;2022-10-16T14:06:11;4.93;;;2.97;;
13032;SDS011;6583;42.632;23.298;2022-10-16T14:08:41;3.43;;;2.80;;
13032;SDS011;6583;42.632;23.298;2022-10-16T14:11:11;4.43;;;2.97;;
13032;SDS011;6583;42.632;23.298;2022-10-16T14:13:42;3.77;;;3.07;;
13032;SDS011;6583;42.632;23.298;2022-10-16T14:16:11;6.77;;;3.30;;
13032;SDS011;6583;42.632;23.298;2022-10-16T14:18:45;4.07;;;3.00;;
13032;SDS011;6583;42.632;23.298;2022-10-16T14:21:15;4.83;;;2.90;;
13032;SDS011;6583;42.632;23.298;2022-10-16T14:23:43;4.63;;;3.23;;
13032;SDS011;6583;42.632;23.298;2022-10-16T14:26:14;6.50;;;3.10;;
13032;SDS011;6583;42.632;23.298;2022-10-16T14:28:44;4.10;;;3.30;;
13032;SDS011;6583;42.632;23.298;2022-10-16T14:31:25;7.13;;;4.30;;
13032;SDS011;6583;42.632;23.298;2022-10-16T14:33:54;5.50;;;3.30;;
13032;SDS011;6583;42.632;23.298;2022-10-16T14:36:21;6.13;;;3.80;;
13032;SDS011;6583;42.632;23.298;2022-10-16T14:38:50;15.97;;;13.23;;
13032;SDS011;6583;42.632;23.298;2022-10-16T14:41:24;12.13;;;9.80;;
13032;SDS011;6583;42.632;23.298;2022-10-16T14:43:52;10.20;;;6.33;;
13032;SDS011;6583;42.632;23.298;2022-10-16T14:46:21;10.50;;;7.90;;
13032;SDS011;6583;42.632;23.298;2022-10-16T14:48:55;9.87;;;6.60;;
13032;SDS011;6583;42.632;23.298;2022-10-16T14:51:26;12.20;;;7.33;;
13032;SDS011;6583;42.632;23.298;2022-10-16T14:53:53;11.67;;;8.30;;
13032;SDS011;6583;42.632;23.298;2022-10-16T14:56:21;10.90;;;7.73;;
13032;SDS011;6583;42.632;23.298;2022-10-16T14:58:52;8.90;;;6.93;;
13032;SDS011;6583;42.632;23.298;2022-10-16T15:01:19;9.93;;;6.20;;
13032;SDS011;6583;42.632;23.298;2022-10-16T15:03:46;5.23;;;3.50;;
13032;SDS011;6583;42.632;23.298;2022-10-16T15:06:13;7.37;;;3.70;;
13032;SDS011;6583;42.632;23.298;2022-10-16T15:08:41;5.23;;;3.70;;
13032;SDS011;6583;42.632;23.298;2022-10-16T15:11:08;4.93;;;3.60;;
13032;SDS011;6583;42.632;23.298;2022-10-16T15:13:39;6.40;;;5.23;;
13032;SDS011;6583;42.632;23.298;2022-10-16T15:16:08;6.10;;;3.20;;
13032;SDS011;6583;42.632;23.298;2022-10-16T15:18:37;9.40;;;5.40;;